Time;durP1;ratioP1;P1;durP2;ratioP2;P2;SDS_P1;SDS_P2;PMS_P1;PMS_P2;Temp;Humidity;BMP_temperature;BMP_pressure;BME280_temperature;BME280_humidity;BME280_pressure;Samples;Min_cycle;Max_cycle;Signal;HPM_P1;HPM_P2
2024/01/09 00:01:34;;;;;;;25.90;13.93;;;;;;;;;;5103842;28;20024;-55
2024/01/09 00:04:00;;;;;;;30.10;14.30;;;;;;;;;;5103949;28;20031;-55
2024/01/09 00:06:27;;;;;;;24.30;13.80;;;;;;;;;;5103477;28;20087;-56
2024/01/09 00:08:54;;;;;;;27.48;14.70;;;;;;;;;;5107165;28;20211;-56
2024/01/09 00:11:21;;;;;;;30.90;15.35;;;;;;;;;;5107245;28;20047;-57
2024/01/09 00:13:47;;;;;;;36.67;14.80;;;;;;;;;;5107703;28;20087;-58
2024/01/09 00:16:14;;;;;;;36.55;14.35;;;;;;;;;;5107573;28;20027;-55
2024/01/09 00:18:40;;;;;;;25.88;13.45;;;;;;;;;;5107622;28;20016;-58
2024/01/09 00:21:07;;;;;;;26.90;14.63;;;;;;;;;;5107397;28;20324;-56
2024/01/09 00:23:33;;;;;;;26.17;14.32;;;;;;;;;;5107609;28;20038;-55
2024/01/09 00:26:01;;;;;;;29.00;13.93;;;;;;;;;;5107446;28;20020;-55
2024/01/09 00:28:28;;;;;;;23.52;13.88;;;;;;;;;;5107004;28;20044;-54
2024/01/09 00:30:55;;;;;;;25.13;13.90;;;;;;;;;;5107197;28;20016;-57
2024/01/09 00:33:21;;;;;;;21.10;13.88;;;;;;;;;;5107447;28;20043;-56
2024/01/09 00:35:48;;;;;;;30.17;14.05;;;;;;;;;;5107019;28;20259;-51
2024/01/09 00:38:14;;;;;;;29.63;13.88;;;;;;;;;;5111102;28;20208;-59
2024/01/09 00:40:41;;;;;;;22.85;13.75;;;;;;;;;;5107185;28;20074;-53
2024/01/09 00:43:08;;;;;;;41.38;19.67;;;;;;;;;;5106940;28;20020;-56
2024/01/09 00:45:34;;;;;;;36.03;15.10;;;;;;;;;;5130789;27;20082;-55
2024/01/09 00:48:01;;;;;;;42.85;15.95;;;;;;;;;;5137613;27;20259;-56
2024/01/09 00:50:27;;;;;;;45.40;14.93;;;;;;;;;;5109527;28;20075;-60
2024/01/09 00:52:54;;;;;;;29.95;14.32;;;;;;;;;;5118580;28;20023;-66
2024/01/09 00:55:21;;;;;;;27.20;13.93;;;;;;;;;;5106161;28;20024;-56
2024/01/09 00:57:47;;;;;;;23.00;13.65;;;;;;;;;;5110067;28;20016;-53
2024/01/09 01:00:14;;;;;;;30.52;14.93;;;;;;;;;;5112779;28;20036;-53
2024/01/09 01:02:41;;;;;;;51.75;15.02;;;;;;;;;;5113305;28;20028;-52
2024/01/09 01:05:07;;;;;;;23.45;13.55;;;;;;;;;;5114955;28;20020;-53
2024/01/09 01:07:34;;;;;;;41.45;14.40;;;;;;;;;;5115995;28;20012;-54
2024/01/09 01:10:00;;;;;;;53.05;16.20;;;;;;;;;;5114190;28;20028;-50
2024/01/09 01:12:27;;;;;;;32.45;14.32;;;;;;;;;;5116938;28;20082;-49
2024/01/09 01:14:53;;;;;;;29.35;14.25;;;;;;;;;;5117305;28;20020;-58
2024/01/09 01:17:20;;;;;;;42.35;27.90;;;;;;;;;;5115397;27;20405;-58
2024/01/09 01:19:47;;;;;;;22.33;14.88;;;;;;;;;;5116735;28;20031;-52
2024/01/09 01:22:13;;;;;;;25.92;14.55;;;;;;;;;;5114904;28;20082;-62
2024/01/09 01:24:40;;;;;;;24.45;14.65;;;;;;;;;;5115243;28;20032;-53
2024/01/09 01:27:06;;;;;;;29.27;14.48;;;;;;;;;;5115105;28;20040;-60
2024/01/09 01:29:33;;;;;;;29.52;15.35;;;;;;;;;;5117791;27;20047;-50
2024/01/09 01:31:59;;;;;;;21.00;14.18;;;;;;;;;;5111449;28;20312;-49
2024/01/09 01:34:26;;;;;;;21.30;13.45;;;;;;;;;;5112565;28;20243;-49
2024/01/09 01:36:53;;;;;;;21.95;13.32;;;;;;;;;;5116710;28;20016;-55
2024/01/09 01:39:19;;;;;;;17.05;13.45;;;;;;;;;;5113670;28;20019;-61
2024/01/09 01:41:46;;;;;;;16.92;13.15;;;;;;;;;;5113290;28;20091;-61
2024/01/09 01:44:17;;;;;;;27.77;13.45;;;;;;;;;;5114218;28;20028;-60
2024/01/09 01:46:44;;;;;;;22.63;14.43;;;;;;;;;;5117038;28;20038;-59
2024/01/09 01:49:12;;;;;;;24.27;14.30;;;;;;;;;;5125647;28;20023;-52
2024/01/09 01:51:38;;;;;;;25.90;14.82;;;;;;;;;;5116932;28;20015;-52
2024/01/09 01:54:05;;;;;;;25.75;15.02;;;;;;;;;;5115161;28;20028;-55
2024/01/09 01:56:32;;;;;;;23.67;13.82;;;;;;;;;;5114804;28;20020;-61
2024/01/09 01:58:59;;;;;;;20.88;13.20;;;;;;;;;;5117289;27;20030;-59
2024/01/09 02:01:26;;;;;;;19.70;13.45;;;;;;;;;;5113961;28;20339;-61
2024/01/09 02:03:53;;;;;;;21.60;13.25;;;;;;;;;;5120309;28;20028;-53
2024/01/09 02:06:20;;;;;;;23.50;13.65;;;;;;;;;;5119360;28;20047;-56
2024/01/09 02:08:47;;;;;;;20.55;13.13;;;;;;;;;;5110603;28;20084;-55
2024/01/09 02:11:14;;;;;;;21.63;13.13;;;;;;;;;;5115137;28;20054;-60
2024/01/09 02:13:40;;;;;;;18.35;12.60;;;;;;;;;;5114733;28;20041;-61
2024/01/09 02:16:07;;;;;;;23.13;13.55;;;;;;;;;;5115018;28;20012;-54
2024/01/09 02:18:34;;;;;;;17.33;12.93;;;;;;;;;;5116223;28;20031;-55
2024/01/09 02:21:00;;;;;;;17.17;12.68;;;;;;;;;;5113434;28;20087;-53
2024/01/09 02:23:27;;;;;;;21.05;13.90;;;;;;;;;;5115018;28;20076;-55
2024/01/09 02:25:54;;;;;;;20.77;13.07;;;;;;;;;;5111785;28;20043;-57
2024/01/09 02:28:25;;;;;;;22.48;13.63;;;;;;;;;;5113296;28;20039;-55
2024/01/09 02:30:53;;;;;;;25.25;12.55;;;;;;;;;;5114460;28;20308;-62
2024/01/09 02:33:20;;;;;;;22.52;13.68;;;;;;;;;;5118576;28;20088;-53
2024/01/09 02:35:47;;;;;;;17.10;12.85;;;;;;;;;;5123041;28;20019;-52
2024/01/09 02:38:13;;;;;;;17.23;13.02;;;;;;;;;;5110882;28;20312;-54
2024/01/09 02:40:40;;;;;;;22.23;13.63;;;;;;;;;;5123756;28;20088;-51
2024/01/09 02:43:06;;;;;;;22.10;13.73;;;;;;;;;;5121716;28;20024;-61
2024/01/09 02:45:33;;;;;;;20.05;12.82;;;;;;;;;;5122817;28;20019;-61
2024/01/09 02:48:00;;;;;;;16.02;12.80;;;;;;;;;;5123006;27;20073;-54
2024/01/09 02:50:26;;;;;;;25.52;16.38;;;;;;;;;;5123352;28;20019;-61
2024/01/09 02:52:53;;;;;;;26.02;18.70;;;;;;;;;;5118757;28;20131;-56
2024/01/09 02:55:20;;;;;;;28.13;18.70;;;;;;;;;;5116930;28;20083;-55
2024/01/09 02:57:46;;;;;;;27.35;16.70;;;;;;;;;;5118098;28;20020;-50
2024/01/09 03:00:13;;;;;;;29.10;15.60;;;;;;;;;;5120567;28;20053;-60
2024/01/09 03:02:39;;;;;;;21.50;15.13;;;;;;;;;;5123274;28;20020;-56
2024/01/09 03:05:06;;;;;;;19.27;13.85;;;;;;;;;;5120710;28;21078;-53
2024/01/09 03:07:34;;;;;;;18.38;13.70;;;;;;;;;;5123218;28;20046;-59
2024/01/09 03:10:01;;;;;;;17.05;13.23;;;;;;;;;;5124895;28;20133;-55
2024/01/09 03:12:27;;;;;;;16.08;12.63;;;;;;;;;;5124309;28;20074;-58
2024/01/09 03:14:55;;;;;;;17.80;11.85;;;;;;;;;;5121362;28;20384;-54
2024/01/09 03:17:21;;;;;;;15.70;12.48;;;;;;;;;;5118391;28;20015;-56
2024/01/09 03:19:48;;;;;;;15.65;11.52;;;;;;;;;;5120972;28;20035;-55
2024/01/09 03:22:14;;;;;;;18.38;12.02;;;;;;;;;;5122811;28;20020;-58
2024/01/09 03:24:41;;;;;;;15.05;11.60;;;;;;;;;;5121232;28;20030;-60
2024/01/09 03:27:08;;;;;;;14.45;11.88;;;;;;;;;;5121217;28;20039;-55
2024/01/09 03:29:34;;;;;;;19.08;12.13;;;;;;;;;;5121805;28;20055;-52
2024/01/09 03:32:01;;;;;;;13.23;11.80;;;;;;;;;;5120668;28;20083;-54
2024/01/09 03:34:27;;;;;;;15.45;11.88;;;;;;;;;;5119104;28;20057;-58
2024/01/09 03:36:54;;;;;;;18.35;11.68;;;;;;;;;;5113464;28;20020;-59
2024/01/09 03:39:20;;;;;;;13.85;12.20;;;;;;;;;;5113499;28;20026;-55
2024/01/09 03:41:47;;;;;;;13.05;10.98;;;;;;;;;;5118565;28;20015;-54
2024/01/09 03:44:14;;;;;;;16.58;11.25;;;;;;;;;;5120874;28;20295;-52
2024/01/09 03:46:40;;;;;;;13.38;11.30;;;;;;;;;;5117797;28;20019;-53
2024/01/09 03:49:07;;;;;;;17.38;11.63;;;;;;;;;;5117661;28;20346;-52
2024/01/09 03:51:33;;;;;;;16.52;11.32;;;;;;;;;;5118856;28;20028;-57
2024/01/09 03:54:00;;;;;;;15.50;11.88;;;;;;;;;;5124029;28;20311;-50
2024/01/09 03:56:26;;;;;;;15.90;11.48;;;;;;;;;;5123942;28;20015;-53
2024/01/09 03:58:53;;;;;;;14.77;11.18;;;;;;;;;;5122516;28;20023;-61
2024/01/09 04:01:20;;;;;;;14.13;11.63;;;;;;;;;;5122652;28;20023;-47
2024/01/09 04:03:46;;;;;;;21.08;11.25;;;;;;;;;;5123925;28;20184;-54
2024/01/09 04:06:13;;;;;;;17.05;10.43;;;;;;;;;;5123710;28;20147;-55
2024/01/09 04:08:40;;;;;;;19.75;11.25;;;;;;;;;;5123783;28;20106;-47
2024/01/09 04:11:06;;;;;;;19.45;11.40;;;;;;;;;;5123781;28;20012;-48
2024/01/09 04:13:33;;;;;;;16.25;11.40;;;;;;;;;;5123711;28;20121;-47
2024/01/09 04:16:00;;;;;;;17.63;10.52;;;;;;;;;;5123739;28;20030;-55
2024/01/09 04:18:26;;;;;;;15.27;10.20;;;;;;;;;;5123636;28;20355;-51
2024/01/09 04:20:53;;;;;;;12.88;10.32;;;;;;;;;;5119605;28;20347;-51
2024/01/09 04:23:19;;;;;;;14.35;11.13;;;;;;;;;;5119767;28;20088;-49
2024/01/09 04:25:46;;;;;;;15.10;10.15;;;;;;;;;;5115098;28;20046;-56
2024/01/09 04:28:12;;;;;;;14.93;10.40;;;;;;;;;;5123391;28;20099;-49
2024/01/09 04:30:39;;;;;;;12.88;10.30;;;;;;;;;;5123492;28;20022;-58
2024/01/09 04:33:06;;;;;;;13.52;9.77;;;;;;;;;;5123589;28;20278;-52
2024/01/09 04:35:32;;;;;;;14.25;10.57;;;;;;;;;;5123654;28;20016;-51
2024/01/09 04:37:59;;;;;;;13.88;9.60;;;;;;;;;;5113577;28;20026;-53
2024/01/09 04:40:27;;;;;;;12.27;9.73;;;;;;;;;;5123372;28;20039;-52
2024/01/09 04:42:54;;;;;;;11.40;9.88;;;;;;;;;;5123446;28;20019;-54
2024/01/09 04:45:21;;;;;;;12.90;10.15;;;;;;;;;;5118508;28;20202;-54
2024/01/09 04:47:47;;;;;;;14.77;10.27;;;;;;;;;;5121896;28;20011;-53
2024/01/09 04:50:14;;;;;;;13.98;9.73;;;;;;;;;;5119111;28;20038;-53
2024/01/09 04:52:41;;;;;;;16.52;10.63;;;;;;;;;;5113379;28;20019;-51
2024/01/09 04:55:08;;;;;;;12.15;9.75;;;;;;;;;;5125633;28;20043;-52
2024/01/09 04:57:34;;;;;;;13.50;9.93;;;;;;;;;;5125778;28;20083;-51
2024/01/09 05:00:02;;;;;;;15.93;10.52;;;;;;;;;;5127268;28;20024;-57
2024/01/09 05:02:29;;;;;;;15.23;9.88;;;;;;;;;;5123699;27;20214;-56
2024/01/09 05:04:55;;;;;;;12.15;9.57;;;;;;;;;;5125841;28;20019;-50
2024/01/09 05:07:22;;;;;;;13.57;10.18;;;;;;;;;;5124678;28;20082;-56
2024/01/09 05:09:49;;;;;;;10.75;9.65;;;;;;;;;;5127165;28;20094;-52
2024/01/09 05:12:16;;;;;;;12.10;9.57;;;;;;;;;;5126721;28;20016;-51
2024/01/09 05:14:42;;;;;;;12.35;10.13;;;;;;;;;;5126957;28;20078;-49
2024/01/09 05:17:09;;;;;;;14.00;9.82;;;;;;;;;;5124554;28;20237;-46
2024/01/09 05:19:36;;;;;;;10.50;9.43;;;;;;;;;;5127000;28;20024;-50
2024/01/09 05:22:02;;;;;;;11.23;9.82;;;;;;;;;;5126284;28;20088;-48
2024/01/09 05:24:29;;;;;;;12.50;9.95;;;;;;;;;;5126790;28;20015;-48
2024/01/09 05:26:56;;;;;;;11.45;10.18;;;;;;;;;;5126309;28;20039;-48
2024/01/09 05:29:22;;;;;;;12.07;9.57;;;;;;;;;;5126560;28;20098;-49
2024/01/09 05:31:49;;;;;;;11.30;9.68;;;;;;;;;;5117398;27;20308;-53
2024/01/09 05:34:15;;;;;;;11.07;9.38;;;;;;;;;;5122878;28;20212;-50
2024/01/09 05:36:42;;;;;;;13.73;9.70;;;;;;;;;;5125984;28;20185;-48
2024/01/09 05:39:08;;;;;;;12.38;9.40;;;;;;;;;;5122366;28;20035;-49
2024/01/09 05:41:35;;;;;;;11.95;10.10;;;;;;;;;;5123994;28;20069;-57
2024/01/09 05:44:02;;;;;;;12.70;9.55;;;;;;;;;;5119262;28;20032;-47
2024/01/09 05:46:28;;;;;;;14.80;10.10;;;;;;;;;;5124170;28;20028;-49
2024/01/09 05:48:55;;;;;;;10.60;9.50;;;;;;;;;;5123572;28;20103;-49
2024/01/09 05:51:21;;;;;;;11.27;9.68;;;;;;;;;;5120097;28;20019;-59
2024/01/09 05:53:48;;;;;;;13.98;9.35;;;;;;;;;;5126020;28;20016;-51
2024/01/09 05:56:14;;;;;;;12.30;8.90;;;;;;;;;;5125879;28;20066;-51
2024/01/09 05:58:41;;;;;;;10.95;8.95;;;;;;;;;;5125931;28;20268;-47
2024/01/09 06:01:08;;;;;;;11.77;9.25;;;;;;;;;;5125644;28;20015;-60
2024/01/09 06:03:34;;;;;;;10.88;9.30;;;;;;;;;;5121382;28;20028;-50
2024/01/09 06:06:01;;;;;;;14.30;9.57;;;;;;;;;;5125623;28;20023;-50
2024/01/09 06:08:28;;;;;;;10.73;9.32;;;;;;;;;;5125896;27;20189;-52
2024/01/09 06:10:55;;;;;;;11.00;9.18;;;;;;;;;;5126000;28;20230;-51
2024/01/09 06:13:21;;;;;;;10.93;8.85;;;;;;;;;;5125910;28;20035;-50
2024/01/09 06:15:48;;;;;;;11.13;8.93;;;;;;;;;;5125687;28;20019;-58
2024/01/09 06:18:14;;;;;;;10.07;8.98;;;;;;;;;;5125831;28;20019;-53
2024/01/09 06:20:41;;;;;;;12.52;9.30;;;;;;;;;;5108284;28;20065;-48
2024/01/09 06:23:07;;;;;;;10.45;9.30;;;;;;;;;;5105107;28;20043;-51
2024/01/09 06:25:34;;;;;;;11.18;8.80;;;;;;;;;;5105337;28;20207;-50
2024/01/09 06:28:01;;;;;;;11.15;8.80;;;;;;;;;;5104783;28;20264;-49
2024/01/09 06:30:27;;;;;;;10.55;9.30;;;;;;;;;;5105033;28;20099;-55
2024/01/09 06:32:54;;;;;;;12.88;8.82;;;;;;;;;;5110332;28;20019;-49
2024/01/09 06:35:20;;;;;;;10.00;8.82;;;;;;;;;;5117842;28;20012;-57
2024/01/09 06:37:47;;;;;;;9.10;8.20;;;;;;;;;;5125435;28;20062;-50
2024/01/09 06:40:13;;;;;;;11.73;8.60;;;;;;;;;;5125801;28;20038;-51
2024/01/09 06:42:40;;;;;;;10.10;9.05;;;;;;;;;;5125287;28;20047;-48
2024/01/09 06:45:07;;;;;;;13.27;9.48;;;;;;;;;;5125628;28;20028;-55
2024/01/09 06:47:34;;;;;;;11.05;8.90;;;;;;;;;;5125328;28;20050;-51
2024/01/09 06:50:01;;;;;;;10.02;8.77;;;;;;;;;;5125482;28;20303;-51
2024/01/09 06:52:27;;;;;;;11.10;8.77;;;;;;;;;;5125220;28;20019;-50
2024/01/09 06:54:54;;;;;;;9.88;8.80;;;;;;;;;;5125677;28;20085;-47
2024/01/09 06:57:20;;;;;;;10.68;9.23;;;;;;;;;;5125042;28;20082;-58
2024/01/09 06:59:48;;;;;;;13.15;8.48;;;;;;;;;;5125452;28;20069;-48
2024/01/09 07:02:14;;;;;;;10.27;8.98;;;;;;;;;;5125110;28;20030;-54
2024/01/09 07:04:41;;;;;;;10.05;8.93;;;;;;;;;;5125339;28;20326;-57
2024/01/09 07:07:07;;;;;;;9.93;8.55;;;;;;;;;;5124879;28;20023;-53
2024/01/09 07:09:34;;;;;;;9.73;8.50;;;;;;;;;;5124887;28;20034;-49
2024/01/09 07:12:01;;;;;;;9.20;8.27;;;;;;;;;;5124854;28;20080;-51
2024/01/09 07:14:27;;;;;;;10.85;8.80;;;;;;;;;;5125056;28;20030;-50
2024/01/09 07:16:54;;;;;;;10.68;8.23;;;;;;;;;;5123825;28;20212;-54
2024/01/09 07:19:20;;;;;;;9.38;8.48;;;;;;;;;;5124927;28;20149;-56
2024/01/09 07:21:47;;;;;;;11.68;8.75;;;;;;;;;;5124672;28;20023;-54
2024/01/09 07:24:13;;;;;;;11.43;8.80;;;;;;;;;;5124672;28;20080;-53
2024/01/09 07:26:41;;;;;;;9.65;8.65;;;;;;;;;;5124540;28;20023;-54
2024/01/09 07:29:08;;;;;;;11.90;8.80;;;;;;;;;;5124799;28;20069;-56
2024/01/09 07:31:34;;;;;;;9.07;8.05;;;;;;;;;;5124316;28;20012;-58
2024/01/09 07:34:01;;;;;;;9.75;8.07;;;;;;;;;;5124676;28;20023;-54
2024/01/09 07:36:27;;;;;;;13.10;8.98;;;;;;;;;;5124397;28;20074;-52
2024/01/09 07:38:54;;;;;;;11.35;8.35;;;;;;;;;;5124558;28;20027;-50
2024/01/09 07:41:21;;;;;;;9.80;8.70;;;;;;;;;;5124377;28;20027;-52
2024/01/09 07:43:47;;;;;;;9.40;8.50;;;;;;;;;;5124574;28;20133;-52
2024/01/09 07:46:14;;;;;;;9.32;8.38;;;;;;;;;;5124170;28;20023;-60
2024/01/09 07:48:41;;;;;;;9.77;8.63;;;;;;;;;;5124485;28;20024;-49
2024/01/09 07:51:08;;;;;;;12.43;9.07;;;;;;;;;;5124271;28;20022;-49
2024/01/09 07:53:34;;;;;;;10.80;8.70;;;;;;;;;;5124168;28;20200;-51
2024/01/09 07:56:01;;;;;;;10.90;9.18;;;;;;;;;;5124315;28;20015;-51
2024/01/09 07:58:28;;;;;;;11.52;8.82;;;;;;;;;;5124406;28;20177;-50
2024/01/09 08:00:54;;;;;;;10.85;8.50;;;;;;;;;;5124084;28;20212;-56
2024/01/09 08:03:21;;;;;;;12.00;9.32;;;;;;;;;;5124228;28;20027;-59
2024/01/09 08:05:48;;;;;;;10.48;8.82;;;;;;;;;;5124180;28;20011;-53
2024/01/09 08:08:14;;;;;;;9.45;8.48;;;;;;;;;;5123938;28;20027;-54
2024/01/09 08:10:41;;;;;;;13.40;9.52;;;;;;;;;;5124418;28;20020;-53
2024/01/09 08:13:07;;;;;;;10.43;8.90;;;;;;;;;;5124181;28;20011;-58
2024/01/09 08:15:34;;;;;;;11.48;8.73;;;;;;;;;;5124108;28;20083;-57
2024/01/09 08:18:00;;;;;;;12.63;9.02;;;;;;;;;;5123860;28;20016;-59
2024/01/09 08:20:28;;;;;;;11.27;8.85;;;;;;;;;;5124141;28;20020;-58
2024/01/09 08:22:55;;;;;;;10.52;8.50;;;;;;;;;;5123935;28;20369;-57
2024/01/09 08:25:21;;;;;;;10.40;9.00;;;;;;;;;;5123854;28;20307;-55
2024/01/09 08:27:48;;;;;;;10.93;9.23;;;;;;;;;;5123989;28;20044;-59
2024/01/09 08:30:15;;;;;;;11.70;9.20;;;;;;;;;;5128249;28;20319;-55
2024/01/09 08:32:41;;;;;;;10.38;9.00;;;;;;;;;;5127754;28;20020;-52
2024/01/09 08:35:08;;;;;;;10.80;8.27;;;;;;;;;;5128370;28;20233;-49
2024/01/09 08:37:34;;;;;;;14.57;8.77;;;;;;;;;;5127797;28;20035;-57
2024/01/09 08:40:01;;;;;;;11.10;8.82;;;;;;;;;;5128128;28;20090;-49
2024/01/09 08:42:27;;;;;;;12.32;8.77;;;;;;;;;;5127772;28;20019;-56
2024/01/09 08:44:54;;;;;;;9.77;8.75;;;;;;;;;;5128152;28;20081;-58
2024/01/09 08:47:20;;;;;;;11.77;8.82;;;;;;;;;;5127656;28;20308;-59
2024/01/09 08:49:48;;;;;;;11.95;8.68;;;;;;;;;;5127845;28;20225;-48
2024/01/09 08:52:15;;;;;;;11.98;8.73;;;;;;;;;;5127698;28;20039;-49
2024/01/09 08:54:41;;;;;;;10.90;8.63;;;;;;;;;;5127662;28;20028;-48
2024/01/09 08:57:08;;;;;;;11.00;8.68;;;;;;;;;;5127634;28;20011;-52
2024/01/09 08:59:34;;;;;;;10.32;8.65;;;;;;;;;;5127825;28;20207;-49
2024/01/09 09:02:01;;;;;;;11.48;8.35;;;;;;;;;;5127196;28;20070;-50
2024/01/09 09:04:28;;;;;;;13.15;8.70;;;;;;;;;;5127217;28;20031;-50
2024/01/09 09:06:54;;;;;;;9.50;8.13;;;;;;;;;;5127252;28;20020;-58
2024/01/09 09:09:21;;;;;;;8.85;7.93;;;;;;;;;;5127134;28;20043;-53
2024/01/09 09:11:47;;;;;;;11.57;8.20;;;;;;;;;;5127174;28;20015;-51
2024/01/09 09:14:14;;;;;;;15.38;8.68;;;;;;;;;;5127367;28;20023;-54
2024/01/09 09:16:41;;;;;;;11.85;8.18;;;;;;;;;;5126965;28;20046;-57
2024/01/09 09:19:08;;;;;;;10.57;8.48;;;;;;;;;;5127136;28;20035;-54
2024/01/09 09:21:34;;;;;;;10.50;8.02;;;;;;;;;;5126878;28;20031;-58
2024/01/09 09:24:01;;;;;;;10.75;8.02;;;;;;;;;;5127063;28;20097;-55
2024/01/09 09:26:27;;;;;;;10.48;8.02;;;;;;;;;;5126813;28;20037;-56
2024/01/09 09:28:55;;;;;;;14.73;8.65;;;;;;;;;;5126761;28;20139;-56
2024/01/09 09:31:21;;;;;;;11.15;8.05;;;;;;;;;;5126698;28;20323;-58
2024/01/09 09:33:48;;;;;;;9.15;8.15;;;;;;;;;;5126723;28;20299;-48
2024/01/09 09:36:14;;;;;;;10.63;8.07;;;;;;;;;;5126732;28;20016;-54
2024/01/09 09:38:41;;;;;;;9.00;7.40;;;;;;;;;;5126816;28;20028;-48
2024/01/09 09:41:08;;;;;;;10.95;7.82;;;;;;;;;;5125582;28;20016;-49
2024/01/09 09:43:35;;;;;;;11.73;7.40;;;;;;;;;;5126576;28;20054;-47
2024/01/09 09:46:05;;;;;;;13.18;7.90;;;;;;;;;;5126779;28;20027;-48
2024/01/09 09:48:32;;;;;;;11.23;7.75;;;;;;;;;;5126291;28;20080;-56
2024/01/09 09:51:00;;;;;;;10.18;7.03;;;;;;;;;;5126448;28;20034;-61
2024/01/09 09:53:30;;;;;;;9.25;7.30;;;;;;;;;;5126335;28;20023;-52
2024/01/09 09:55:57;;;;;;;9.80;7.25;;;;;;;;;;5126538;28;20019;-48
2024/01/09 09:58:24;;;;;;;10.15;7.65;;;;;;;;;;5126162;27;20029;-53
2024/01/09 10:00:52;;;;;;;10.88;7.65;;;;;;;;;;5126198;28;20026;-51
2024/01/09 10:03:20;;;;;;;12.07;7.95;;;;;;;;;;5126090;28;20065;-51
2024/01/09 10:05:46;;;;;;;10.95;7.70;;;;;;;;;;5126040;28;20086;-57
2024/01/09 10:08:14;;;;;;;11.48;6.85;;;;;;;;;;5126232;28;20024;-55
2024/01/09 10:10:40;;;;;;;13.93;7.95;;;;;;;;;;5125891;28;20027;-59
2024/01/09 10:13:07;;;;;;;9.68;7.25;;;;;;;;;;5125867;28;20022;-52
2024/01/09 10:15:37;;;;;;;12.60;7.32;;;;;;;;;;5125913;28;20016;-53
2024/01/09 10:18:04;;;;;;;11.02;7.45;;;;;;;;;;5125648;28;20227;-50
2024/01/09 10:20:31;;;;;;;9.55;7.25;;;;;;;;;;5125800;28;20255;-58
2024/01/09 10:22:57;;;;;;;10.05;7.20;;;;;;;;;;5125517;28;20011;-51
2024/01/09 10:25:24;;;;;;;12.98;7.90;;;;;;;;;;5125732;28;20319;-54
2024/01/09 10:27:51;;;;;;;9.80;7.57;;;;;;;;;;5125637;28;20055;-54
2024/01/09 10:30:19;;;;;;;10.65;7.10;;;;;;;;;;5125935;28;20027;-53
2024/01/09 10:32:47;;;;;;;13.30;7.35;;;;;;;;;;5125381;28;20023;-57
2024/01/09 10:35:14;;;;;;;13.85;7.72;;;;;;;;;;5125879;28;20253;-57
2024/01/09 10:37:43;;;;;;;14.05;7.20;;;;;;;;;;5125497;28;20180;-56
2024/01/09 10:40:11;;;;;;;28.35;9.10;;;;;;;;;;5125928;28;20129;-58
2024/01/09 10:42:47;;;;;;;17.83;7.90;;;;;;;;;;5119161;28;20065;-52
2024/01/09 10:45:15;;;;;;;15.50;7.53;;;;;;;;;;5113067;28;20177;-53
2024/01/09 10:47:43;;;;;;;25.15;8.55;;;;;;;;;;5121963;28;20087;-50
2024/01/09 10:50:10;;;;;;;17.45;8.45;;;;;;;;;;5125647;28;20103;-58
2024/01/09 10:52:38;;;;;;;16.42;7.78;;;;;;;;;;5125050;28;20324;-59
2024/01/09 10:55:06;;;;;;;27.45;8.20;;;;;;;;;;5125593;28;20060;-58
2024/01/09 10:57:34;;;;;;;24.40;7.95;;;;;;;;;;5125118;28;20027;-60
2024/01/09 11:00:04;;;;;;;47.22;9.40;;;;;;;;;;5125335;28;20031;-58
2024/01/09 11:02:35;;;;;;;25.13;8.02;;;;;;;;;;5125094;28;20023;-56
2024/01/09 11:05:03;;;;;;;22.88;7.68;;;;;;;;;;5125423;28;20031;-51
2024/01/09 11:07:32;;;;;;;19.40;7.47;;;;;;;;;;5124915;28;20491;-52
2024/01/09 11:10:00;;;;;;;16.25;7.85;;;;;;;;;;5125175;28;20233;-57
2024/01/09 11:12:36;;;;;;;23.73;7.55;;;;;;;;;;5124705;28;20028;-54
2024/01/09 11:15:13;;;;;;;14.73;7.55;;;;;;;;;;5125161;28;20019;-54
2024/01/09 11:17:41;;;;;;;14.90;7.72;;;;;;;;;;5124549;28;20319;-50
2024/01/09 11:20:09;;;;;;;11.93;6.85;;;;;;;;;;5125236;28;20042;-50
2024/01/09 11:22:36;;;;;;;16.50;7.18;;;;;;;;;;5116029;28;20019;-49
2024/01/09 11:25:10;;;;;;;17.15;7.65;;;;;;;;;;5123786;28;20019;-48
2024/01/09 11:27:41;;;;;;;13.75;7.88;;;;;;;;;;5112271;28;20332;-51
2024/01/09 11:30:10;;;;;;;14.20;7.47;;;;;;;;;;5124887;28;20356;-47
2024/01/09 11:32:39;;;;;;;20.70;8.30;;;;;;;;;;5105200;28;20323;-52
2024/01/09 11:35:10;;;;;;;15.33;7.97;;;;;;;;;;5117625;28;20047;-49
2024/01/09 11:37:40;;;;;;;13.90;7.57;;;;;;;;;;5115500;28;20064;-58
2024/01/09 11:40:10;;;;;;;18.73;7.70;;;;;;;;;;5123673;28;20267;-59
2024/01/09 11:42:40;;;;;;;19.92;8.10;;;;;;;;;;5123233;28;20269;-57
2024/01/09 11:45:11;;;;;;;18.35;7.68;;;;;;;;;;5124831;28;20066;-57
2024/01/09 11:47:38;;;;;;;26.60;8.03;;;;;;;;;;5124550;28;20312;-58
2024/01/09 11:50:06;;;;;;;27.73;8.77;;;;;;;;;;5124659;28;20027;-59
2024/01/09 11:52:33;;;;;;;20.15;8.65;;;;;;;;;;5124227;28;20083;-57
2024/01/09 11:55:00;;;;;;;22.30;8.55;;;;;;;;;;5124777;28;20046;-49
2024/01/09 11:57:27;;;;;;;21.80;8.13;;;;;;;;;;5124356;28;20012;-48
2024/01/09 11:59:54;;;;;;;26.52;8.30;;;;;;;;;;5124636;28;20091;-48
2024/01/09 12:02:20;;;;;;;18.73;8.30;;;;;;;;;;5124277;28;20027;-49
2024/01/09 12:04:47;;;;;;;24.90;8.57;;;;;;;;;;5113413;28;20237;-52
2024/01/09 12:07:14;;;;;;;29.73;9.40;;;;;;;;;;5120354;28;20024;-51
2024/01/09 12:09:40;;;;;;;28.08;8.75;;;;;;;;;;5108362;28;20024;-54
2024/01/09 12:12:08;;;;;;;21.63;8.88;;;;;;;;;;5107948;28;20066;-48
2024/01/09 12:14:35;;;;;;;35.33;7.72;;;;;;;;;;5107990;28;20028;-49
2024/01/09 12:17:15;;;;;;;30.80;8.98;;;;;;;;;;5107795;28;20020;-47
2024/01/09 12:19:42;;;;;;;24.85;8.20;;;;;;;;;;5107567;28;20035;-51
2024/01/09 12:22:08;;;;;;;23.85;8.57;;;;;;;;;;5107585;28;20024;-54
2024/01/09 12:24:35;;;;;;;25.23;7.85;;;;;;;;;;5108156;28;20103;-54
2024/01/09 12:27:02;;;;;;;37.28;8.73;;;;;;;;;;5107490;28;20048;-57
2024/01/09 12:29:28;;;;;;;28.00;9.35;;;;;;;;;;5107709;28;20043;-59
2024/01/09 12:31:55;;;;;;;27.58;8.98;;;;;;;;;;5107580;28;20019;-58
2024/01/09 12:34:22;;;;;;;34.80;9.27;;;;;;;;;;5107471;28;20024;-52
2024/01/09 12:36:49;;;;;;;26.35;8.88;;;;;;;;;;5107236;28;20031;-51
2024/01/09 12:39:19;;;;;;;29.45;9.02;;;;;;;;;;5107716;28;20020;-50
2024/01/09 12:41:47;;;;;;;30.00;8.65;;;;;;;;;;5107322;28;20046;-51
2024/01/09 12:44:14;;;;;;;20.35;8.50;;;;;;;;;;5107356;28;20020;-57
2024/01/09 12:46:47;;;;;;;21.55;8.68;;;;;;;;;;5107350;28;20024;-58
2024/01/09 12:49:14;;;;;;;27.23;8.63;;;;;;;;;;5107257;28;20035;-55
2024/01/09 12:51:41;;;;;;;18.95;7.78;;;;;;;;;;5107340;28;20223;-57
2024/01/09 12:54:08;;;;;;;18.15;7.32;;;;;;;;;;5107382;28;20069;-50
2024/01/09 12:56:34;;;;;;;18.30;7.75;;;;;;;;;;5107269;28;20024;-51
2024/01/09 12:59:01;;;;;;;17.73;6.97;;;;;;;;;;5107028;28;20087;-55
2024/01/09 13:01:27;;;;;;;17.20;7.55;;;;;;;;;;5107127;28;20100;-50
2024/01/09 13:03:54;;;;;;;20.67;8.02;;;;;;;;;;5106791;28;20024;-49
2024/01/09 13:06:21;;;;;;;21.42;7.80;;;;;;;;;;5106720;28;20024;-51
2024/01/09 13:08:48;;;;;;;24.30;7.90;;;;;;;;;;5106849;28;20032;-49
2024/01/09 13:11:14;;;;;;;28.50;7.97;;;;;;;;;;5106747;28;20016;-49
2024/01/09 13:13:42;;;;;;;26.60;9.48;;;;;;;;;;5116251;27;20200;-55
2024/01/09 13:16:09;;;;;;;21.17;9.18;;;;;;;;;;5121380;28;20016;-53
2024/01/09 13:18:35;;;;;;;25.52;9.85;;;;;;;;;;5106725;28;20223;-48
2024/01/09 13:21:02;;;;;;;22.60;9.70;;;;;;;;;;5106525;28;20028;-50
2024/01/09 13:23:29;;;;;;;20.60;9.18;;;;;;;;;;5110304;28;20103;-53
2024/01/09 13:25:58;;;;;;;20.55;9.25;;;;;;;;;;5117421;28;20019;-48
2024/01/09 13:28:25;;;;;;;19.95;8.85;;;;;;;;;;5117524;28;20098;-49
2024/01/09 13:30:51;;;;;;;19.85;8.32;;;;;;;;;;5126758;28;20019;-57
2024/01/09 13:33:18;;;;;;;22.27;8.60;;;;;;;;;;5126754;28;20024;-53
2024/01/09 13:35:44;;;;;;;12.80;7.78;;;;;;;;;;5126594;28;20016;-52
2024/01/09 13:38:11;;;;;;;15.20;7.80;;;;;;;;;;5126530;28;20091;-53
2024/01/09 13:40:38;;;;;;;20.13;8.07;;;;;;;;;;5126574;28;20008;-54
2024/01/09 13:43:04;;;;;;;14.30;7.50;;;;;;;;;;5126405;28;20304;-50
2024/01/09 13:45:31;;;;;;;14.45;7.10;;;;;;;;;;5126452;28;20023;-54
2024/01/09 13:47:59;;;;;;;16.42;7.38;;;;;;;;;;5125161;28;20064;-51
2024/01/09 13:50:26;;;;;;;13.52;6.80;;;;;;;;;;5126347;28;20028;-50
2024/01/09 13:52:53;;;;;;;13.13;7.05;;;;;;;;;;5126459;28;20019;-49
2024/01/09 13:55:19;;;;;;;13.93;7.65;;;;;;;;;;5126424;28;20319;-50
2024/01/09 13:57:47;;;;;;;15.80;6.85;;;;;;;;;;5123354;28;20027;-50
2024/01/09 14:00:16;;;;;;;17.13;8.07;;;;;;;;;;5115486;28;20039;-52
2024/01/09 14:02:44;;;;;;;12.40;6.88;;;;;;;;;;5113812;28;20023;-55
2024/01/09 14:05:12;;;;;;;15.13;7.45;;;;;;;;;;5106312;28;20039;-51
2024/01/09 14:07:39;;;;;;;12.10;6.97;;;;;;;;;;5105791;28;20020;-49
2024/01/09 14:10:09;;;;;;;14.25;7.30;;;;;;;;;;5106238;28;20031;-49
2024/01/09 14:12:36;;;;;;;12.82;6.90;;;;;;;;;;5104396;28;20249;-49
2024/01/09 14:15:04;;;;;;;11.45;7.18;;;;;;;;;;5106039;28;20134;-58
2024/01/09 14:17:31;;;;;;;10.20;7.32;;;;;;;;;;5105609;28;20027;-51
2024/01/09 14:19:58;;;;;;;13.88;7.68;;;;;;;;;;5105816;28;20327;-47
2024/01/09 14:22:28;;;;;;;14.65;7.18;;;;;;;;;;5105523;28;20040;-51
2024/01/09 14:24:54;;;;;;;12.02;7.38;;;;;;;;;;5106837;28;20027;-51